Time,TemperatureF,DewpointF,PressureIn,WindDirection,WindDirectionDegrees,WindSpeedMPH,WindSpeedGustMPH,Humidity,HourlyPrecipIn,Conditions,Clouds,dailyrainin,SoftwareType,DateUTC
2013-07-11 00:01:00,71.5,70.9,29.79,NNW,331,0.0,0.0,98,0.01,,,0.00,VWS V14.01,2013-07-11 04:01:00,
2013-07-11 00:02:00,71.5,70.9,29.79,NNW,331,0.0,0.0,98,0.01,,,0.00,VWS V14.01,2013-07-11 04:02:00,
2013-07-11 00:03:00,71.5,70.9,29.79,NNW,331,0.0,0.0,98,0.01,,,0.00,VWS V14.01,2013-07-11 04:03:00,
2013-07-11 00:08:00,71.4,71.1,29.78,NNW,331,0.0,0.0,99,0.01,,,0.00,VWS V14.01,2013-07-11 04:08:00,
2013-07-11 00:13:00,71.3,71.0,29.78,NNW,331,0.0,0.0,99,0.02,,,0.01,VWS V14.01,2013-07-11 04:13:00,
2013-07-11 00:18:00,71.3,71.0,29.78,NNW,331,0.0,0.0,99,0.02,,,0.01,VWS V14.01,2013-07-11 04:18:00,
2013-07-11 00:23:00,71.2,70.9,29.78,NNW,331,0.0,0.0,99,0.02,,,0.01,VWS V14.01,2013-07-11 04:23:00,
2013-07-11 00:28:00,71.1,70.8,29.78,NNW,331,0.0,0.0,99,0.02,,,0.01,VWS V14.01,2013-07-11 04:28:00,
2013-07-11 00:33:00,71.0,70.4,29.78,NNW,331,0.0,0.0,98,0.02,,,0.02,VWS V14.01,2013-07-11 04:33:00,
2013-07-11 00:39:00,71.0,70.4,29.78,NNW,331,0.0,0.0,98,0.02,,,0.02,VWS V14.01,2013-07-11 04:39:00,
2013-07-11 00:44:00,70.9,70.6,29.78,NNW,331,0.0,0.0,99,0.02,,,0.02,VWS V14.01,2013-07-11 04:44:00,
2013-07-11 00:49:00,70.9,70.6,29.78,NNW,331,0.0,0.0,99,0.02,,,0.02,VWS V14.01,2013-07-11 04:49:00,
2013-07-11 00:54:00,70.8,70.5,29.77,NNW,331,0.0,0.0,99,0.02,,,0.02,VWS V14.01,2013-07-11 04:54:00,
2013-07-11 00:59:00,70.8,70.5,29.77,NNW,331,0.0,0.0,99,0.02,,,0.02,VWS V14.01,2013-07-11 04:59:00,
2013-07-11 01:04:00,70.7,70.4,29.77,NNW,331,0.0,0.0,99,0.02,,,0.02,VWS V14.01,2013-07-11 05:04:00,
2013-07-11 01:09:00,70.6,70.3,29.77,NNW,331,0.0,0.0,99,0.02,,,0.02,VWS V14.01,2013-07-11 05:09:00,
2013-07-11 01:14:00,70.5,70.2,29.77,NNW,331,0.0,0.0,99,0.02,,,0.02,VWS V14.01,2013-07-11 05:14:00,
2013-07-11 01:19:00,70.4,70.1,29.77,NNW,331,0.0,0.0,99,0.02,,,0.02,VWS V14.01,2013-07-11 05:19:00,
2013-07-11 01:24:00,70.4,70.1,29.77,NNW,331,0.0,0.0,99,0.03,,,0.03,VWS V14.01,2013-07-11 05:24:00,
2013-07-11 01:30:00,70.4,70.1,29.77,NNW,331,0.0,0.0,99,0.03,,,0.03,VWS V14.01,2013-07-11 05:30:00,
2013-07-11 01:35:00,70.3,70.0,29.77,NNW,331,0.0,0.0,99,0.01,,,0.03,VWS V14.01,2013-07-11 05:35:00,
2013-07-11 01:40:00,70.3,70.0,29.77,NNW,331,0.0,0.0,99,0.01,,,0.03,VWS V14.01,2013-07-11 05:40:00,
2013-07-11 01:45:00,70.3,70.0,29.77,NNW,331,0.0,0.0,99,0.02,,,0.04,VWS V14.01,2013-07-11 05:45:00,
2013-07-11 01:50:00,70.3,70.0,29.76,NNW,331,0.0,0.0,99,0.02,,,0.04,VWS V14.01,2013-07-11 05:50:00,
2013-07-11 01:55:00,70.2,69.9,29.77,NNW,331,0.0,0.0,99,0.02,,,0.04,VWS V14.01,2013-07-11 05:55:00,
2013-07-11 02:00:00,70.2,69.9,29.77,NNW,331,0.0,0.0,99,0.02,,,0.04,VWS V14.01,2013-07-11 06:00:00,
2013-07-11 02:05:00,70.1,69.8,29.77,NNW,331,0.0,0.0,99,0.02,,,0.04,VWS V14.01,2013-07-11 06:05:00,
2013-07-11 02:10:00,70.2,69.9,29.77,NNW,331,0.0,0.0,99,0.02,,,0.04,VWS V14.01,2013-07-11 06:10:00,
2013-07-11 02:16:00,70.3,70.0,29.77,NNW,331,0.0,0.0,99,0.02,,,0.04,VWS V14.01,2013-07-11 06:16:00,
2013-07-11 02:21:00,70.3,70.0,29.77,NNW,331,0.0,0.0,99,0.02,,,0.04,VWS V14.01,2013-07-11 06:21:00,
2013-07-11 02:26:00,70.2,69.9,29.77,NNW,331,0.0,0.0,99,0.02,,,0.04,VWS V14.01,2013-07-11 06:26:00,
2013-07-11 02:31:00,70.1,69.8,29.77,NNW,331,0.0,0.0,99,0.01,,,0.04,VWS V14.01,2013-07-11 06:31:00,
2013-07-11 02:36:00,70.0,69.7,29.77,NNW,331,0.0,0.0,99,0.01,,,0.04,VWS V14.01,2013-07-11 06:36:00,
2013-07-11 02:41:00,69.9,69.6,29.77,NNW,331,0.0,0.0,99,0.01,,,0.04,VWS V14.01,2013-07-11 06:41:00,
2013-07-11 02:46:00,69.9,69.6,29.77,NNW,331,0.0,0.0,99,0.01,,,0.04,VWS V14.01,2013-07-11 06:46:00,
2013-07-11 02:51:00,70.0,69.7,29.78,NNW,331,0.0,0.0,99,0.02,,,0.05,VWS V14.01,2013-07-11 06:51:00,
2013-07-11 02:57:00,70.0,69.7,29.78,NNW,331,0.0,0.0,99,0.02,,,0.05,VWS V14.01,2013-07-11 06:57:00,
2013-07-11 03:02:00,70.1,69.8,29.78,NNW,331,0.0,0.0,99,0.01,,,0.05,VWS V14.01,2013-07-11 07:02:00,
2013-07-11 03:07:00,70.1,69.8,29.78,NNW,331,0.0,0.0,99,0.01,,,0.05,VWS V14.01,2013-07-11 07:07:00,
2013-07-11 03:12:00,70.0,69.7,29.78,NNW,331,0.0,0.0,99,0.01,,,0.05,VWS V14.01,2013-07-11 07:12:00,
2013-07-11 03:17:00,69.9,69.6,29.78,NNW,331,0.0,0.0,99,0.02,,,0.06,VWS V14.01,2013-07-11 07:17:00,
2013-07-11 03:22:00,69.8,69.5,29.78,NNW,331,0.0,0.0,99,0.02,,,0.06,VWS V14.01,2013-07-11 07:22:00,
2013-07-11 03:27:00,69.7,69.4,29.78,NNW,331,0.0,0.0,99,0.02,,,0.06,VWS V14.01,2013-07-11 07:27:00,
2013-07-11 03:32:00,69.7,69.4,29.78,NNW,331,0.0,0.0,99,0.02,,,0.06,VWS V14.01,2013-07-11 07:32:00,
2013-07-11 03:38:00,69.7,69.4,29.78,NNW,331,0.0,0.0,99,0.02,,,0.06,VWS V14.01,2013-07-11 07:38:00,
2013-07-11 03:43:00,69.7,69.4,29.78,NNW,331,0.0,0.0,99,0.02,,,0.06,VWS V14.01,2013-07-11 07:43:00,
2013-07-11 03:48:00,69.7,69.4,29.78,NNW,331,0.0,0.0,99,0.02,,,0.06,VWS V14.01,2013-07-11 07:48:00,
2013-07-11 03:53:00,69.8,69.5,29.78,NNW,331,0.0,0.0,99,0.02,,,0.06,VWS V14.01,2013-07-11 07:53:00,
2013-07-11 03:58:00,69.9,69.6,29.78,NNW,331,0.0,0.0,99,0.02,,,0.06,VWS V14.01,2013-07-11 07:58:00,
2013-07-11 04:03:00,69.9,69.6,29.78,NNW,331,0.0,0.0,99,0.01,,,0.06,VWS V14.01,2013-07-11 08:03:00,
2013-07-11 04:08:00,69.9,69.6,29.78,NNW,331,0.0,0.0,99,0.01,,,0.06,VWS V14.01,2013-07-11 08:08:00,
2013-07-11 04:13:00,69.8,69.5,29.78,NNW,331,0.0,0.0,99,0.01,,,0.06,VWS V14.01,2013-07-11 08:13:00,
2013-07-11 04:18:00,69.8,69.5,29.77,NNW,331,0.0,0.0,99,0.01,,,0.06,VWS V14.01,2013-07-11 08:18:00,
2013-07-11 04:24:00,69.9,69.6,29.78,NNW,331,0.0,0.0,99,0.01,,,0.06,VWS V14.01,2013-07-11 08:24:00,
2013-07-11 04:29:00,69.9,69.6,29.78,NNW,331,0.0,0.0,99,0.01,,,0.06,VWS V14.01,2013-07-11 08:29:00,
2013-07-11 04:34:00,69.9,69.6,29.78,NNW,331,0.0,0.0,99,0.01,,,0.07,VWS V14.01,2013-07-11 08:34:00,
2013-07-11 04:39:00,69.9,69.6,29.78,NNW,331,0.0,0.0,99,0.01,,,0.07,VWS V14.01,2013-07-11 08:39:00,
2013-07-11 04:44:00,69.9,69.9,29.78,NNW,331,0.0,0.0,100,0.01,,,0.07,VWS V14.01,2013-07-11 08:44:00,
2013-07-11 04:49:00,70.0,70.0,29.78,NNW,331,0.0,0.0,100,0.01,,,0.07,VWS V14.01,2013-07-11 08:49:00,
2013-07-11 04:54:00,70.0,70.0,29.78,NNW,331,0.0,0.0,100,0.01,,,0.07,VWS V14.01,2013-07-11 08:54:00,
2013-07-11 04:59:00,70.0,70.0,29.78,NNW,331,0.0,0.0,100,0.01,,,0.07,VWS V14.01,2013-07-11 08:59:00,
2013-07-11 05:05:00,70.0,70.0,29.79,NNW,331,0.0,0.0,100,0.02,,,0.08,VWS V14.01,2013-07-11 09:05:00,
2013-07-11 05:10:00,70.1,70.1,29.78,NNW,331,0.0,0.0,100,0.02,,,0.08,VWS V14.01,2013-07-11 09:10:00,
2013-07-11 05:15:00,70.1,70.1,29.78,NNW,331,0.0,0.0,100,0.02,,,0.08,VWS V14.01,2013-07-11 09:15:00,
2013-07-11 05:20:00,70.0,70.0,29.78,NNW,331,0.0,0.0,100,0.02,,,0.08,VWS V14.01,2013-07-11 09:20:00,
2013-07-11 05:25:00,70.0,70.0,29.78,NNW,331,0.0,0.0,100,0.02,,,0.08,VWS V14.01,2013-07-11 09:25:00,
2013-07-11 05:30:00,70.0,70.0,29.78,NNW,331,0.0,0.0,100,0.02,,,0.08,VWS V14.01,2013-07-11 09:30:00,
2013-07-11 05:35:00,70.0,70.0,29.78,NNW,331,0.0,0.0,100,0.02,,,0.08,VWS V14.01,2013-07-11 09:35:00,
2013-07-11 05:40:00,69.9,69.9,29.79,NNW,331,0.0,0.0,100,0.02,,,0.08,VWS V14.01,2013-07-11 09:40:00,
2013-07-11 05:45:00,69.9,69.9,29.79,NNW,331,0.0,0.0,100,0.02,,,0.08,VWS V14.01,2013-07-11 09:45:00,
2013-07-11 05:50:00,69.9,69.9,29.79,NNW,331,0.0,0.0,100,0.02,,,0.08,VWS V14.01,2013-07-11 09:50:00,
2013-07-11 05:55:00,70.1,70.1,29.78,NNW,331,0.0,0.0,100,0.02,,,0.08,VWS V14.01,2013-07-11 09:55:00,
2013-07-11 06:00:00,70.1,70.1,29.78,NNW,331,0.0,0.0,100,0.02,,,0.08,VWS V14.01,2013-07-11 10:00:00,
2013-07-11 06:06:00,70.1,70.1,29.79,NNW,331,0.0,0.0,100,0.01,,,0.08,VWS V14.01,2013-07-11 10:06:00,
2013-07-11 06:11:00,70.1,70.1,29.79,NNW,331,0.0,0.0,100,0.01,,,0.08,VWS V14.01,2013-07-11 10:11:00,
2013-07-11 06:16:00,70.2,70.2,29.80,NNW,331,0.0,0.0,100,0.01,,,0.08,VWS V14.01,2013-07-11 10:16:00,
2013-07-11 06:21:00,70.2,70.2,29.80,NNW,331,0.0,0.0,100,0.01,,,0.08,VWS V14.01,2013-07-11 10:21:00,
2013-07-11 06:26:00,70.3,70.0,29.80,NNW,331,0.0,0.0,99,0.01,,,0.08,VWS V14.01,2013-07-11 10:26:00,
2013-07-11 06:31:00,70.3,70.3,29.80,NNW,331,0.0,0.0,100,0.00,,,0.08,VWS V14.01,2013-07-11 10:31:00,
2013-07-11 06:36:00,70.4,70.4,29.80,NNW,331,0.0,0.0,100,0.00,,,0.08,VWS V14.01,2013-07-11 10:36:00,
2013-07-11 06:41:00,70.4,70.4,29.80,NNW,331,0.0,0.0,100,0.01,,,0.09,VWS V14.01,2013-07-11 10:41:00,
2013-07-11 06:47:00,70.5,70.5,29.80,NNW,331,0.0,0.0,100,0.01,,,0.09,VWS V14.01,2013-07-11 10:47:00,
2013-07-11 06:52:00,70.6,70.6,29.80,NNW,331,0.0,0.0,100,0.01,,,0.09,VWS V14.01,2013-07-11 10:52:00,
2013-07-11 06:57:00,70.6,70.6,29.80,NNW,331,0.0,0.0,100,0.01,,,0.09,VWS V14.01,2013-07-11 10:57:00,
2013-07-11 07:02:00,70.7,70.7,29.80,NNW,331,0.0,0.0,100,0.01,,,0.09,VWS V14.01,2013-07-11 11:02:00,
2013-07-11 07:07:00,70.8,70.8,29.80,NNW,331,0.0,0.0,100,0.01,,,0.09,VWS V14.01,2013-07-11 11:07:00,
2013-07-11 07:12:00,71.0,71.0,29.80,NNW,331,0.0,0.0,100,0.01,,,0.09,VWS V14.01,2013-07-11 11:12:00,
2013-07-11 07:17:00,71.2,71.2,29.81,NNW,331,0.0,0.0,100,0.01,,,0.09,VWS V14.01,2013-07-11 11:17:00,
2013-07-11 07:22:00,71.3,71.3,29.81,NNW,331,0.0,0.0,100,0.01,,,0.09,VWS V14.01,2013-07-11 11:22:00,
2013-07-11 07:27:00,71.3,71.3,29.81,NNW,331,0.0,0.0,100,0.01,,,0.09,VWS V14.01,2013-07-11 11:27:00,
2013-07-11 07:33:00,71.5,71.5,29.81,NNW,331,0.0,0.0,100,0.02,,,0.10,VWS V14.01,2013-07-11 11:33:00,
2013-07-11 07:38:00,71.8,71.8,29.81,NNW,331,0.0,0.0,100,0.02,,,0.10,VWS V14.01,2013-07-11 11:38:00,
2013-07-11 07:43:00,71.8,71.8,29.82,NNW,331,0.0,0.0,100,0.02,,,0.10,VWS V14.01,2013-07-11 11:43:00,
2013-07-11 07:48:00,72.0,72.0,29.82,NNW,331,0.0,0.0,100,0.02,,,0.10,VWS V14.01,2013-07-11 11:48:00,
2013-07-11 07:53:00,72.2,72.2,29.82,NNW,331,0.0,0.0,100,0.02,,,0.10,VWS V14.01,2013-07-11 11:53:00,
2013-07-11 07:58:00,72.5,72.5,29.82,NNW,331,0.0,0.0,100,0.02,,,0.10,VWS V14.01,2013-07-11 11:58:00,
2013-07-11 08:03:00,72.5,72.5,29.83,NNW,331,0.0,0.0,100,0.01,,,0.10,VWS V14.01,2013-07-11 12:03:00,
2013-07-11 08:08:00,72.5,72.5,29.83,NNW,331,0.0,0.0,100,0.01,,,0.10,VWS V14.01,2013-07-11 12:08:00,
2013-07-11 08:13:00,72.7,72.7,29.83,NNW,331,0.0,0.0,100,0.01,,,0.10,VWS V14.01,2013-07-11 12:13:00,
2013-07-11 08:19:00,72.7,72.7,29.83,NNW,331,0.0,0.0,100,0.01,,,0.10,VWS V14.01,2013-07-11 12:19:00,
2013-07-11 08:24:00,72.8,72.8,29.83,NNW,331,0.0,0.0,100,0.01,,,0.10,VWS V14.01,2013-07-11 12:24:00,
2013-07-11 08:29:00,73.0,73.0,29.83,NNW,331,0.0,0.0,100,0.01,,,0.10,VWS V14.01,2013-07-11 12:29:00,
2013-07-11 08:34:00,73.1,73.1,29.83,NNW,331,0.0,0.0,100,0.00,,,0.10,VWS V14.01,2013-07-11 12:34:00,
2013-07-11 08:39:00,73.1,73.1,29.82,NNW,331,0.0,0.0,100,0.00,,,0.10,VWS V14.01,2013-07-11 12:39:00,
2013-07-11 08:44:00,73.2,73.2,29.83,NNW,331,0.0,0.0,100,0.00,,,0.10,VWS V14.01,2013-07-11 12:44:00,
2013-07-11 08:49:00,73.2,73.2,29.82,NNW,331,0.0,0.0,100,0.00,,,0.10,VWS V14.01,2013-07-11 12:49:00,
2013-07-11 08:54:00,73.1,73.1,29.82,NNW,331,0.0,0.0,100,0.00,,,0.10,VWS V14.01,2013-07-11 12:54:00,
2013-07-11 09:00:00,73.0,73.0,29.83,NNW,331,0.0,0.0,100,0.00,,,0.10,VWS V14.01,2013-07-11 13:00:00,
2013-07-11 09:05:00,73.1,73.1,29.83,NNW,331,0.0,0.0,100,0.00,,,0.10,VWS V14.01,2013-07-11 13:05:00,
2013-07-11 09:10:00,73.2,73.2,29.82,NNW,331,0.0,0.0,100,0.00,,,0.10,VWS V14.01,2013-07-11 13:10:00,
2013-07-11 09:15:00,73.4,73.4,29.82,NNW,331,0.0,0.0,100,0.00,,,0.10,VWS V14.01,2013-07-11 13:15:00,
2013-07-11 09:20:00,73.5,73.5,29.82,NNW,331,0.0,0.0,100,0.00,,,0.10,VWS V14.01,2013-07-11 13:20:00,
2013-07-11 09:25:00,73.7,73.7,29.82,NNW,331,0.0,0.0,100,0.00,,,0.10,VWS V14.01,2013-07-11 13:25:00,
2013-07-11 09:30:00,73.7,73.7,29.82,NNW,331,0.0,0.0,100,0.00,,,0.10,VWS V14.01,2013-07-11 13:30:00,
2013-07-11 09:35:00,73.3,73.3,29.82,NNW,331,0.0,0.0,100,0.00,,,0.10,VWS V14.01,2013-07-11 13:35:00,
2013-07-11 09:41:00,73.3,73.3,29.82,NNW,331,0.0,0.0,100,0.00,,,0.10,VWS V14.01,2013-07-11 13:41:00,
2013-07-11 09:46:00,73.4,73.4,29.82,NNW,331,0.0,0.0,100,0.00,,,0.10,VWS V14.01,2013-07-11 13:46:00,
2013-07-11 09:51:00,73.4,73.4,29.82,NNW,331,0.0,0.0,100,0.00,,,0.10,VWS V14.01,2013-07-11 13:51:00,
2013-07-11 09:56:00,73.4,73.4,29.82,NNW,331,0.0,0.0,100,0.00,,,0.10,VWS V14.01,2013-07-11 13:56:00,
2013-07-11 10:01:00,73.5,73.2,29.82,NNW,331,0.0,0.0,99,0.00,,,0.10,VWS V14.01,2013-07-11 14:01:00,
2013-07-11 10:06:00,73.7,73.4,29.82,NNW,331,0.0,0.0,99,0.00,,,0.10,VWS V14.01,2013-07-11 14:06:00,
2013-07-11 10:11:00,74.0,74.0,29.83,NNW,331,0.0,0.0,100,0.01,,,0.11,VWS V14.01,2013-07-11 14:11:00,
2013-07-11 10:17:00,74.0,74.0,29.83,NNW,331,0.0,0.0,100,0.01,,,0.11,VWS V14.01,2013-07-11 14:17:00,
2013-07-11 10:22:00,74.1,73.8,29.83,NNW,331,0.0,0.0,99,0.01,,,0.11,VWS V14.01,2013-07-11 14:22:00,
2013-07-11 10:27:00,74.2,73.9,29.83,NNW,331,0.0,0.0,99,0.01,,,0.11,VWS V14.01,2013-07-11 14:27:00,
2013-07-11 10:32:00,74.1,73.8,29.83,NNW,331,0.0,0.0,99,0.01,,,0.11,VWS V14.01,2013-07-11 14:32:00,
2013-07-11 10:37:00,74.4,74.1,29.84,NE,42,0.0,2.0,99,0.01,,,0.11,VWS V14.01,2013-07-11 14:37:00,
2013-07-11 10:43:00,74.6,74.3,29.84,NE,42,0.0,2.0,99,0.01,,,0.11,VWS V14.01,2013-07-11 14:43:00,
2013-07-11 10:48:00,74.4,74.1,29.84,NE,42,0.0,2.0,99,0.01,,,0.11,VWS V14.01,2013-07-11 14:48:00,
2013-07-11 10:53:00,74.6,74.3,29.84,ENE,59,1.0,2.0,99,0.01,,,0.11,VWS V14.01,2013-07-11 14:53:00,
2013-07-11 10:58:00,74.8,74.5,29.84,ENE,59,0.0,2.0,99,0.01,,,0.11,VWS V14.01,2013-07-11 14:58:00,
2013-07-11 11:03:00,75.1,74.8,29.84,ENE,59,0.0,0.0,99,0.01,,,0.11,VWS V14.01,2013-07-11 15:03:00,
2013-07-11 11:08:00,75.4,75.1,29.84,ENE,59,0.0,0.0,99,0.01,,,0.11,VWS V14.01,2013-07-11 15:08:00,
2013-07-11 11:14:00,75.3,74.7,29.84,ENE,61,0.0,1.0,98,0.01,,,0.11,VWS V14.01,2013-07-11 15:14:00,
2013-07-11 11:19:00,76.0,75.7,29.84,ENE,61,0.0,1.0,99,0.01,,,0.11,VWS V14.01,2013-07-11 15:19:00,
2013-07-11 11:24:00,76.3,75.7,29.84,ENE,61,0.0,1.0,98,0.01,,,0.11,VWS V14.01,2013-07-11 15:24:00,
2013-07-11 11:29:00,76.2,74.7,29.84,ENE,61,0.0,1.0,95,0.01,,,0.11,VWS V14.01,2013-07-11 15:29:00,
2013-07-11 11:34:00,76.6,75.4,29.84,ENE,61,0.0,0.0,96,0.00,,,0.11,VWS V14.01,2013-07-11 15:34:00,
2013-07-11 11:39:00,76.3,73.2,29.84,NW,323,0.0,4.0,90,0.01,,,0.12,VWS V14.01,2013-07-11 15:39:00,
2013-07-11 11:45:00,76.6,74.1,29.84,NW,323,0.0,4.0,92,0.01,,,0.12,VWS V14.01,2013-07-11 15:45:00,
2013-07-11 11:50:00,76.8,73.7,29.83,NW,323,0.0,4.0,90,0.01,,,0.12,VWS V14.01,2013-07-11 15:50:00,
2013-07-11 11:55:00,77.2,73.7,29.83,NNW,338,0.0,4.0,89,0.01,,,0.12,VWS V14.01,2013-07-11 15:55:00,
2013-07-11 12:00:00,77.4,73.9,29.83,NNE,31,0.0,4.0,89,0.01,,,0.12,VWS V14.01,2013-07-11 16:00:00,
2013-07-11 12:05:00,77.5,72.6,29.83,WSW,247,0.0,1.0,85,0.01,,,0.12,VWS V14.01,2013-07-11 16:05:00,
2013-07-11 12:11:00,77.7,73.2,29.83,WSW,247,0.0,1.0,86,0.01,,,0.12,VWS V14.01,2013-07-11 16:11:00,
2013-07-11 12:16:00,77.9,73.7,29.83,WSW,247,0.0,1.0,87,0.01,,,0.12,VWS V14.01,2013-07-11 16:16:00,
2013-07-11 12:21:00,78.1,73.2,29.84,WSW,246,0.0,1.0,85,0.01,,,0.12,VWS V14.01,2013-07-11 16:21:00,
2013-07-11 12:26:00,78.2,73.0,29.84,WNW,293,0.0,2.0,84,0.01,,,0.12,VWS V14.01,2013-07-11 16:26:00,
2013-07-11 12:32:00,78.4,73.9,29.83,WNW,293,0.0,0.0,86,0.01,,,0.12,VWS V14.01,2013-07-11 16:32:00,
2013-07-11 12:37:00,78.5,73.3,29.83,WNW,293,0.0,0.0,84,0.01,,,0.12,VWS V14.01,2013-07-11 16:37:00,
2013-07-11 12:42:00,78.9,74.0,29.83,WNW,293,0.0,0.0,85,0.01,,,0.12,VWS V14.01,2013-07-11 16:42:00,
2013-07-11 12:47:00,79.1,72.4,29.83,WNW,293,0.0,1.0,80,0.01,,,0.12,VWS V14.01,2013-07-11 16:47:00,
2013-07-11 12:53:00,79.3,73.7,29.83,WNW,293,0.0,1.0,83,0.01,,,0.12,VWS V14.01,2013-07-11 16:53:00,
2013-07-11 12:58:00,79.6,74.7,29.83,WNW,293,0.0,1.0,85,0.01,,,0.12,VWS V14.01,2013-07-11 16:58:00,
2013-07-11 13:03:00,79.8,74.2,29.83,WNW,293,0.0,0.0,83,0.00,,,0.12,VWS V14.01,2013-07-11 17:03:00,
2013-07-11 13:08:00,79.9,73.9,29.83,WNW,293,0.0,0.0,82,0.00,,,0.12,VWS V14.01,2013-07-11 17:08:00,
2013-07-11 13:13:00,79.9,72.8,29.83,WNW,293,0.0,0.0,79,0.00,,,0.12,VWS V14.01,2013-07-11 17:13:00,
2013-07-11 13:19:00,80.1,72.6,29.83,WNW,293,0.0,0.0,78,0.00,,,0.12,VWS V14.01,2013-07-11 17:19:00,
2013-07-11 13:24:00,80.5,74.1,29.83,WNW,293,0.0,0.0,81,0.00,,,0.12,VWS V14.01,2013-07-11 17:24:00,
2013-07-11 13:29:00,81.1,76.5,29.83,WNW,293,0.0,0.0,86,0.00,,,0.12,VWS V14.01,2013-07-11 17:29:00,
2013-07-11 13:34:00,81.1,72.8,29.83,WNW,293,0.0,1.0,76,0.00,,,0.12,VWS V14.01,2013-07-11 17:34:00,
2013-07-11 13:39:00,81.2,73.3,29.83,WNW,293,0.0,1.0,77,0.00,,,0.12,VWS V14.01,2013-07-11 17:39:00,
2013-07-11 13:44:00,81.6,74.5,29.83,WNW,293,0.0,1.0,79,0.00,,,0.12,VWS V14.01,2013-07-11 17:44:00,
2013-07-11 13:49:00,82.1,76.1,29.83,WNW,293,1.0,1.0,82,0.00,,,0.12,VWS V14.01,2013-07-11 17:49:00,
2013-07-11 13:54:00,82.5,74.2,29.83,WNW,294,0.0,1.0,76,0.00,,,0.12,VWS V14.01,2013-07-11 17:54:00,
2013-07-11 14:00:00,82.3,72.8,29.83,NNW,327,0.0,1.0,73,0.00,,,0.12,VWS V14.01,2013-07-11 18:00:00,
2013-07-11 14:05:00,82.3,72.8,29.83,West,277,0.0,1.0,73,0.00,,,0.12,VWS V14.01,2013-07-11 18:05:00,
2013-07-11 14:10:00,82.6,74.3,29.82,West,264,0.0,1.0,76,0.00,,,0.12,VWS V14.01,2013-07-11 18:10:00,
2013-07-11 14:15:00,82.9,73.4,29.82,West,264,0.0,1.0,73,0.00,,,0.12,VWS V14.01,2013-07-11 18:15:00,
2013-07-11 14:20:00,83.1,72.3,29.82,West,264,0.0,1.0,70,0.00,,,0.12,VWS V14.01,2013-07-11 18:20:00,
2013-07-11 14:25:00,83.5,70.9,29.82,West,264,0.0,1.0,66,0.00,,,0.12,VWS V14.01,2013-07-11 18:25:00,
2013-07-11 14:31:00,83.5,72.7,29.82,WSW,237,1.0,1.0,70,0.00,,,0.12,VWS V14.01,2013-07-11 18:31:00,
2013-07-11 14:36:00,83.7,74.1,29.82,WSW,237,0.0,1.0,73,0.00,,,0.12,VWS V14.01,2013-07-11 18:36:00,
2013-07-11 14:41:00,83.9,70.4,29.82,WSW,237,0.0,1.0,64,0.00,,,0.12,VWS V14.01,2013-07-11 18:41:00,
2013-07-11 14:46:00,83.9,72.2,29.82,WSW,237,0.0,1.0,68,0.00,,,0.12,VWS V14.01,2013-07-11 18:46:00,
2013-07-11 14:51:00,83.7,71.1,29.82,WSW,237,0.0,1.0,66,0.00,,,0.12,VWS V14.01,2013-07-11 18:51:00,
2013-07-11 14:56:00,83.5,71.4,29.82,WSW,237,0.0,1.0,67,0.00,,,0.12,VWS V14.01,2013-07-11 18:56:00,
2013-07-11 15:01:00,83.5,72.3,29.82,WSW,237,0.0,0.0,69,0.00,,,0.12,VWS V14.01,2013-07-11 19:01:00,
2013-07-11 15:06:00,83.6,73.2,29.82,WSW,237,0.0,1.0,71,0.00,,,0.12,VWS V14.01,2013-07-11 19:06:00,
2013-07-11 15:11:00,83.7,73.7,29.82,WSW,237,0.0,1.0,72,0.00,,,0.12,VWS V14.01,2013-07-11 19:11:00,
2013-07-11 15:17:00,83.7,74.5,29.82,WSW,237,0.0,1.0,74,0.00,,,0.12,VWS V14.01,2013-07-11 19:17:00,
2013-07-11 15:22:00,83.7,74.9,29.82,WSW,237,0.0,1.0,75,0.00,,,0.12,VWS V14.01,2013-07-11 19:22:00,
2013-07-11 15:27:00,83.5,72.7,29.82,ESE,123,0.0,1.0,70,0.00,,,0.12,VWS V14.01,2013-07-11 19:27:00,
2013-07-11 15:32:00,83.3,72.5,29.82,ESE,123,0.0,0.0,70,0.00,,,0.12,VWS V14.01,2013-07-11 19:32:00,
2013-07-11 15:37:00,83.2,73.2,29.82,ESE,123,0.0,0.0,72,0.00,,,0.12,VWS V14.01,2013-07-11 19:37:00,
2013-07-11 15:42:00,83.1,74.0,29.82,ESE,123,0.0,1.0,74,0.00,,,0.12,VWS V14.01,2013-07-11 19:42:00,
2013-07-11 15:47:00,82.9,72.5,29.82,ESE,123,0.0,1.0,71,0.00,,,0.12,VWS V14.01,2013-07-11 19:47:00,
2013-07-11 15:52:00,82.9,74.9,29.82,ESE,123,0.0,1.0,77,0.00,,,0.12,VWS V14.01,2013-07-11 19:52:00,
2013-07-11 15:58:00,82.7,72.3,29.82,SSE,159,0.0,1.0,71,0.00,,,0.12,VWS V14.01,2013-07-11 19:58:00,
2013-07-11 16:03:00,82.5,72.6,29.82,West,261,0.0,1.0,72,0.00,,,0.12,VWS V14.01,2013-07-11 20:03:00,
2013-07-11 16:08:00,82.5,70.4,29.82,WNW,288,0.0,2.0,67,0.00,,,0.12,VWS V14.01,2013-07-11 20:08:00,
2013-07-11 16:13:00,82.6,71.8,29.82,West,277,4.0,5.0,70,0.00,,,0.12,VWS V14.01,2013-07-11 20:13:00,
2013-07-11 16:18:00,82.4,72.9,29.83,WNW,296,0.0,5.0,73,0.00,,,0.12,VWS V14.01,2013-07-11 20:18:00,
2013-07-11 16:23:00,82.1,72.6,29.83,West,267,0.0,5.0,73,0.00,,,0.12,VWS V14.01,2013-07-11 20:23:00,
2013-07-11 16:28:00,81.7,71.4,29.83,NW,312,0.0,5.0,71,0.00,,,0.12,VWS V14.01,2013-07-11 20:28:00,
2013-07-11 16:34:00,81.3,73.0,29.83,NW,312,0.0,2.0,76,0.00,,,0.12,VWS V14.01,2013-07-11 20:34:00,
2013-07-11 16:39:00,81.0,71.9,29.82,West,262,0.0,2.0,74,0.00,,,0.12,VWS V14.01,2013-07-11 20:39:00,
2013-07-11 16:44:00,80.6,71.2,29.83,WNW,286,0.0,5.0,73,0.00,,,0.12,VWS V14.01,2013-07-11 20:44:00,
2013-07-11 16:49:00,80.3,72.1,29.83,WNW,302,0.0,5.0,76,0.00,,,0.12,VWS V14.01,2013-07-11 20:49:00,
2013-07-11 16:54:00,79.8,70.4,29.83,WNW,298,2.0,5.0,73,0.00,,,0.12,VWS V14.01,2013-07-11 20:54:00,
2013-07-11 16:59:00,79.5,72.8,29.83,WNW,290,0.0,5.0,80,0.00,,,0.12,VWS V14.01,2013-07-11 20:59:00,
2013-07-11 17:04:00,79.1,71.3,29.83,WNW,290,0.0,0.0,77,0.00,,,0.12,VWS V14.01,2013-07-11 21:04:00,
2013-07-11 17:09:00,79.0,71.9,29.83,West,269,0.0,2.0,79,0.00,,,0.12,VWS V14.01,2013-07-11 21:09:00,
2013-07-11 17:15:00,79.0,71.9,29.83,West,269,0.0,2.0,79,0.00,,,0.12,VWS V14.01,2013-07-11 21:15:00,
2013-07-11 17:20:00,79.0,71.9,29.83,West,269,0.0,2.0,79,0.00,,,0.12,VWS V14.01,2013-07-11 21:20:00,
2013-07-11 17:25:00,79.0,71.2,29.83,West,269,0.0,2.0,77,0.00,,,0.12,VWS V14.01,2013-07-11 21:25:00,
2013-07-11 17:30:00,78.9,72.2,29.83,West,269,0.0,2.0,80,0.00,,,0.12,VWS V14.01,2013-07-11 21:30:00,
2013-07-11 17:35:00,78.7,70.9,29.83,West,269,0.0,1.0,77,0.00,,,0.12,VWS V14.01,2013-07-11 21:35:00,
2013-07-11 17:40:00,78.5,72.6,29.83,West,269,0.0,1.0,82,0.00,,,0.12,VWS V14.01,2013-07-11 21:40:00,
2013-07-11 17:45:00,78.3,72.0,29.83,West,269,0.0,1.0,81,0.00,,,0.12,VWS V14.01,2013-07-11 21:45:00,
2013-07-11 17:50:00,78.2,72.3,29.83,West,269,0.0,1.0,82,0.00,,,0.12,VWS V14.01,2013-07-11 21:50:00,
2013-07-11 17:55:00,78.0,71.7,29.84,West,269,0.0,1.0,81,0.00,,,0.12,VWS V14.01,2013-07-11 21:55:00,
2013-07-11 18:00:00,77.8,71.9,29.84,West,269,0.0,1.0,82,0.00,,,0.12,VWS V14.01,2013-07-11 22:00:00,
2013-07-11 18:05:00,77.7,72.1,29.84,West,269,0.0,1.0,83,0.00,,,0.12,VWS V14.01,2013-07-11 22:05:00,
2013-07-11 18:11:00,77.4,70.0,29.84,West,281,0.0,2.0,78,0.00,,,0.12,VWS V14.01,2013-07-11 22:11:00,
2013-07-11 18:15:00,77.0,69.2,29.85,WNW,284,0.0,3.0,77,0.00,,,0.12,VWS V14.01,2013-07-11 22:15:00,
2013-07-11 18:21:00,76.8,69.8,29.85,WNW,289,0.0,3.0,79,0.00,,,0.12,VWS V14.01,2013-07-11 22:21:00,
2013-07-11 18:26:00,76.7,71.2,29.85,WNW,289,0.0,3.0,83,0.00,,,0.12,VWS V14.01,2013-07-11 22:26:00,
2013-07-11 18:31:00,76.5,71.0,29.85,WNW,289,0.0,0.0,83,0.00,,,0.12,VWS V14.01,2013-07-11 22:31:00,
2013-07-11 18:36:00,76.4,71.6,29.85,WNW,289,0.0,0.0,85,0.00,,,0.12,VWS V14.01,2013-07-11 22:36:00,
2013-07-11 18:41:00,76.3,71.1,29.86,WNW,289,0.0,0.0,84,0.00,,,0.12,VWS V14.01,2013-07-11 22:41:00,
2013-07-11 18:46:00,76.1,70.6,29.86,WNW,289,0.0,0.0,83,0.00,,,0.12,VWS V14.01,2013-07-11 22:46:00,
2013-07-11 18:52:00,76.0,70.8,29.86,WNW,289,0.0,0.0,84,0.00,,,0.12,VWS V14.01,2013-07-11 22:52:00,
2013-07-11 18:57:00,76.0,70.8,29.86,WNW,289,0.0,0.0,84,0.00,,,0.12,VWS V14.01,2013-07-11 22:57:00,
2013-07-11 19:02:00,75.9,70.4,29.86,WNW,289,0.0,0.0,83,0.00,,,0.12,VWS V14.01,2013-07-11 23:02:00,
2013-07-11 19:08:00,75.8,71.0,29.86,WNW,289,0.0,0.0,85,0.00,,,0.12,VWS V14.01,2013-07-11 23:08:00,
2013-07-11 19:13:00,75.7,70.9,29.86,WNW,289,0.0,0.0,85,0.00,,,0.12,VWS V14.01,2013-07-11 23:13:00,
2013-07-11 19:18:00,75.7,71.2,29.86,WNW,289,0.0,0.0,86,0.00,,,0.12,VWS V14.01,2013-07-11 23:18:00,
2013-07-11 19:23:00,75.5,71.0,29.87,WNW,289,0.0,0.0,86,0.00,,,0.12,VWS V14.01,2013-07-11 23:23:00,
2013-07-11 19:28:00,75.4,70.9,29.87,WNW,289,0.0,0.0,86,0.00,,,0.12,VWS V14.01,2013-07-11 23:28:00,
2013-07-11 19:33:00,75.1,69.9,29.87,WNW,289,0.0,0.0,84,0.00,,,0.12,VWS V14.01,2013-07-11 23:33:00,
2013-07-11 19:38:00,75.0,70.5,29.88,WNW,289,0.0,0.0,86,0.00,,,0.12,VWS V14.01,2013-07-11 23:38:00,
2013-07-11 19:43:00,74.8,70.0,29.88,WNW,289,0.0,0.0,85,0.00,,,0.12,VWS V14.01,2013-07-11 23:43:00,
2013-07-11 19:49:00,74.5,69.0,29.88,WNW,289,0.0,0.0,83,0.00,,,0.12,VWS V14.01,2013-07-11 23:49:00,
2013-07-11 19:54:00,74.2,68.7,29.88,WNW,289,0.0,0.0,83,0.00,,,0.12,VWS V14.01,2013-07-11 23:54:00,
2013-07-11 19:59:00,74.0,68.5,29.88,WNW,289,0.0,0.0,83,0.00,,,0.12,VWS V14.01,2013-07-11 23:59:00,
2013-07-11 20:04:00,73.7,67.9,29.88,WNW,289,0.0,0.0,82,0.00,,,0.12,VWS V14.01,2013-07-12 00:04:00,
2013-07-11 20:09:00,73.5,68.0,29.88,WNW,289,0.0,0.0,83,0.00,,,0.12,VWS V14.01,2013-07-12 00:09:00,
2013-07-11 20:14:00,73.3,68.2,29.88,WNW,289,0.0,0.0,84,0.00,,,0.12,VWS V14.01,2013-07-12 00:14:00,
2013-07-11 20:19:00,73.1,68.7,29.88,WNW,289,0.0,0.0,86,0.00,,,0.12,VWS V14.01,2013-07-12 00:19:00,
2013-07-11 20:24:00,72.8,67.3,29.88,WNW,289,0.0,0.0,83,0.00,,,0.12,VWS V14.01,2013-07-12 00:24:00,
2013-07-11 20:30:00,72.5,67.7,29.88,WNW,289,0.0,0.0,85,0.00,,,0.12,VWS V14.01,2013-07-12 00:30:00,
2013-07-11 20:35:00,72.2,67.4,29.88,WNW,289,0.0,0.0,85,0.00,,,0.12,VWS V14.01,2013-07-12 00:35:00,
2013-07-11 20:40:00,71.8,66.7,29.89,WNW,289,0.0,0.0,84,0.00,,,0.12,VWS V14.01,2013-07-12 00:40:00,
2013-07-11 20:45:00,71.5,67.1,29.88,WNW,289,0.0,0.0,86,0.00,,,0.12,VWS V14.01,2013-07-12 00:45:00,
2013-07-11 20:50:00,71.2,67.1,29.89,WNW,289,0.0,0.0,87,0.00,,,0.12,VWS V14.01,2013-07-12 00:50:00,
2013-07-11 20:55:00,71.0,66.9,29.89,WNW,289,0.0,0.0,87,0.00,,,0.12,VWS V14.01,2013-07-12 00:55:00,
2013-07-11 21:00:00,70.6,66.2,29.89,WNW,289,0.0,0.0,86,0.00,,,0.12,VWS V14.01,2013-07-12 01:00:00,
2013-07-11 21:06:00,70.2,66.5,29.89,WNW,289,0.0,0.0,88,0.00,,,0.12,VWS V14.01,2013-07-12 01:06:00,
2013-07-11 21:11:00,70.0,66.6,29.89,WNW,289,0.0,0.0,89,0.00,,,0.12,VWS V14.01,2013-07-12 01:11:00,
2013-07-11 21:16:00,69.9,66.8,29.89,WNW,289,0.0,0.0,90,0.00,,,0.12,VWS V14.01,2013-07-12 01:16:00,
2013-07-11 21:21:00,69.7,67.0,29.89,WNW,289,0.0,0.0,91,0.00,,,0.12,VWS V14.01,2013-07-12 01:21:00,
2013-07-11 21:26:00,69.5,66.8,29.89,WNW,289,0.0,0.0,91,0.00,,,0.12,VWS V14.01,2013-07-12 01:26:00,
2013-07-11 21:31:00,69.3,66.6,29.90,WNW,289,0.0,0.0,91,0.00,,,0.12,VWS V14.01,2013-07-12 01:31:00,
2013-07-11 21:36:00,69.1,66.7,29.90,WNW,289,0.0,0.0,92,0.00,,,0.12,VWS V14.01,2013-07-12 01:36:00,
2013-07-11 21:41:00,69.0,66.6,29.90,WNW,289,0.0,0.0,92,0.00,,,0.12,VWS V14.01,2013-07-12 01:41:00,
2013-07-11 21:47:00,68.8,66.4,29.90,WNW,289,0.0,0.0,92,0.00,,,0.12,VWS V14.01,2013-07-12 01:47:00,
2013-07-11 21:52:00,68.7,66.3,29.90,WNW,289,0.0,0.0,92,0.00,,,0.12,VWS V14.01,2013-07-12 01:52:00,
2013-07-11 21:57:00,68.6,66.5,29.91,WNW,289,0.0,0.0,93,0.00,,,0.12,VWS V14.01,2013-07-12 01:57:00,
2013-07-11 22:02:00,68.5,66.4,29.91,WNW,289,0.0,0.0,93,0.00,,,0.12,VWS V14.01,2013-07-12 02:02:00,
2013-07-11 22:07:00,68.4,66.3,29.91,WNW,289,0.0,0.0,93,0.00,,,0.12,VWS V14.01,2013-07-12 02:07:00,
2013-07-11 22:13:00,68.4,66.6,29.91,WNW,289,0.0,0.0,94,0.00,,,0.12,VWS V14.01,2013-07-12 02:13:00,
2013-07-11 22:18:00,68.3,66.5,29.91,WNW,289,0.0,0.0,94,0.00,,,0.12,VWS V14.01,2013-07-12 02:18:00,
2013-07-11 22:23:00,68.3,66.5,29.91,WNW,289,0.0,0.0,94,0.00,,,0.12,VWS V14.01,2013-07-12 02:23:00,
2013-07-11 22:28:00,68.2,66.4,29.91,WNW,289,0.0,0.0,94,0.00,,,0.12,VWS V14.01,2013-07-12 02:28:00,
2013-07-11 22:33:00,68.0,66.2,29.91,WNW,289,0.0,0.0,94,0.00,,,0.12,VWS V14.01,2013-07-12 02:33:00,
2013-07-11 22:38:00,67.9,66.1,29.91,WNW,289,0.0,0.0,94,0.00,,,0.12,VWS V14.01,2013-07-12 02:38:00,
2013-07-11 22:43:00,67.7,65.9,29.91,WNW,289,0.0,0.0,94,0.00,,,0.12,VWS V14.01,2013-07-12 02:43:00,
2013-07-11 22:49:00,67.6,65.8,29.91,WNW,289,0.0,0.0,94,0.00,,,0.12,VWS V14.01,2013-07-12 02:49:00,
2013-07-11 22:54:00,67.4,65.6,29.91,WNW,289,0.0,0.0,94,0.00,,,0.12,VWS V14.01,2013-07-12 02:54:00,
2013-07-11 22:59:00,67.3,65.5,29.91,WNW,289,0.0,0.0,94,0.00,,,0.12,VWS V14.01,2013-07-12 02:59:00,
2013-07-11 23:04:00,67.1,65.3,29.91,WNW,289,0.0,0.0,94,0.00,,,0.12,VWS V14.01,2013-07-12 03:04:00,
2013-07-11 23:09:00,66.9,65.1,29.91,WNW,289,0.0,0.0,94,0.00,,,0.12,VWS V14.01,2013-07-12 03:09:00,
2013-07-11 23:14:00,66.8,65.0,29.91,WNW,289,0.0,0.0,94,0.00,,,0.12,VWS V14.01,2013-07-12 03:14:00,
2013-07-11 23:19:00,66.5,64.7,29.91,WNW,289,0.0,0.0,94,0.00,,,0.12,VWS V14.01,2013-07-12 03:19:00,
2013-07-11 23:24:00,66.3,64.8,29.91,WNW,289,0.0,0.0,95,0.00,,,0.12,VWS V14.01,2013-07-12 03:24:00,
2013-07-11 23:30:00,66.2,64.7,29.91,WNW,289,0.0,0.0,95,0.00,,,0.12,VWS V14.01,2013-07-12 03:30:00,
2013-07-11 23:35:00,66.0,64.5,29.91,WNW,289,0.0,0.0,95,0.00,,,0.12,VWS V14.01,2013-07-12 03:35:00,
2013-07-11 23:40:00,65.8,64.3,29.91,WNW,289,0.0,0.0,95,0.00,,,0.12,VWS V14.01,2013-07-12 03:40:00,
2013-07-11 23:45:00,65.8,64.6,29.91,WNW,289,0.0,0.0,96,0.00,,,0.12,VWS V14.01,2013-07-12 03:45:00,
2013-07-11 23:50:00,65.7,64.5,29.91,WNW,289,0.0,0.0,96,0.00,,,0.12,VWS V14.01,2013-07-12 03:50:00,
2013-07-11 23:56:00,65.5,64.3,29.91,WNW,289,0.0,0.0,96,0.00,,,0.12,VWS V14.01,2013-07-12 03:56:00,